sensor_id;sensor_type;location;lat;lon;timestamp;P1;durP1;ratioP1;P2;durP2;ratioP2
70818;SDS011;58439;51.046;13.692;2023-04-06T00:00:05;15.63;;;8.43;;
70818;SDS011;58439;51.046;13.692;2023-04-06T00:07:46;17.40;;;8.10;;
70818;SDS011;58439;51.046;13.692;2023-04-06T00:15:55;15.30;;;8.20;;
70818;SDS011;58439;51.046;13.692;2023-04-06T00:18:27;13.32;;;7.47;;
70818;SDS011;58439;51.046;13.692;2023-04-06T00:20:54;14.10;;;7.78;;
70818;SDS011;58439;51.046;13.692;2023-04-06T00:23:22;15.32;;;7.35;;
70818;SDS011;58439;51.046;13.692;2023-04-06T00:25:49;14.43;;;7.10;;
70818;SDS011;58439;51.046;13.692;2023-04-06T00:28:17;14.70;;;7.18;;
70818;SDS011;58439;51.046;13.692;2023-04-06T00:30:54;16.45;;;6.93;;
70818;SDS011;58439;51.046;13.692;2023-04-06T00:33:22;14.63;;;6.93;;
70818;SDS011;58439;51.046;13.692;2023-04-06T00:35:50;13.38;;;7.22;;
70818;SDS011;58439;51.046;13.692;2023-04-06T00:38:24;12.40;;;6.22;;
70818;SDS011;58439;51.046;13.692;2023-04-06T00:40:52;15.98;;;7.13;;
70818;SDS011;58439;51.046;13.692;2023-04-06T00:43:20;12.60;;;6.97;;
70818;SDS011;58439;51.046;13.692;2023-04-06T00:45:56;16.60;;;7.32;;
70818;SDS011;58439;51.046;13.692;2023-04-06T00:48:33;22.17;;;7.38;;
70818;SDS011;58439;51.046;13.692;2023-04-06T00:51:04;16.33;;;7.78;;
70818;SDS011;58439;51.046;13.692;2023-04-06T00:53:39;16.88;;;7.80;;
70818;SDS011;58439;51.046;13.692;2023-04-06T00:56:08;15.93;;;6.97;;
70818;SDS011;58439;51.046;13.692;2023-04-06T00:58:48;19.35;;;7.40;;
70818;SDS011;58439;51.046;13.692;2023-04-06T01:01:19;16.30;;;7.75;;
70818;SDS011;58439;51.046;13.692;2023-04-06T01:04:14;14.50;;;6.50;;
70818;SDS011;58439;51.046;13.692;2023-04-06T01:06:54;12.10;;;6.28;;
70818;SDS011;58439;51.046;13.692;2023-04-06T01:09:28;13.60;;;6.85;;
70818;SDS011;58439;51.046;13.692;2023-04-06T01:12:24;12.85;;;6.32;;
70818;SDS011;58439;51.046;13.692;2023-04-06T01:14:53;13.40;;;6.30;;
70818;SDS011;58439;51.046;13.692;2023-04-06T01:17:21;13.02;;;6.60;;
70818;SDS011;58439;51.046;13.692;2023-04-06T01:19:50;14.13;;;6.05;;
70818;SDS011;58439;51.046;13.692;2023-04-06T01:22:25;11.13;;;6.15;;
70818;SDS011;58439;51.046;13.692;2023-04-06T01:24:58;13.07;;;5.22;;
70818;SDS011;58439;51.046;13.692;2023-04-06T01:27:33;9.27;;;5.40;;
70818;SDS011;58439;51.046;13.692;2023-04-06T01:30:18;10.57;;;5.43;;
70818;SDS011;58439;51.046;13.692;2023-04-06T01:32:56;12.93;;;5.88;;
70818;SDS011;58439;51.046;13.692;2023-04-06T01:35:38;10.68;;;5.55;;
70818;SDS011;58439;51.046;13.692;2023-04-06T01:38:16;13.10;;;5.75;;
70818;SDS011;58439;51.046;13.692;2023-04-06T01:40:44;13.65;;;5.88;;
70818;SDS011;58439;51.046;13.692;2023-04-06T01:43:12;13.23;;;5.78;;
70818;SDS011;58439;51.046;13.692;2023-04-06T01:45:58;11.95;;;6.20;;
70818;SDS011;58439;51.046;13.692;2023-04-06T01:48:31;15.77;;;6.03;;
70818;SDS011;58439;51.046;13.692;2023-04-06T01:51:01;14.38;;;6.40;;
70818;SDS011;58439;51.046;13.692;2023-04-06T01:53:32;11.00;;;5.22;;
70818;SDS011;58439;51.046;13.692;2023-04-06T01:56:04;12.87;;;5.83;;
70818;SDS011;58439;51.046;13.692;2023-04-06T01:58:37;12.63;;;5.20;;
70818;SDS011;58439;51.046;13.692;2023-04-06T02:05:38;14.90;;;6.13;;
70818;SDS011;58439;51.046;13.692;2023-04-06T02:08:17;13.05;;;6.18;;
70818;SDS011;58439;51.046;13.692;2023-04-06T02:10:53;13.35;;;5.43;;
70818;SDS011;58439;51.046;13.692;2023-04-06T02:13:33;19.17;;;5.80;;
70818;SDS011;58439;51.046;13.692;2023-04-06T02:16:01;12.60;;;6.22;;
70818;SDS011;58439;51.046;13.692;2023-04-06T02:18:30;12.18;;;5.88;;
70818;SDS011;58439;51.046;13.692;2023-04-06T02:20:58;14.30;;;5.93;;
70818;SDS011;58439;51.046;13.692;2023-04-06T02:23:26;12.68;;;5.30;;
70818;SDS011;58439;51.046;13.692;2023-04-06T02:25:53;11.98;;;6.13;;
70818;SDS011;58439;51.046;13.692;2023-04-06T02:28:20;13.63;;;5.78;;
70818;SDS011;58439;51.046;13.692;2023-04-06T02:30:53;11.68;;;5.90;;
70818;SDS011;58439;51.046;13.692;2023-04-06T02:33:26;15.50;;;6.10;;
70818;SDS011;58439;51.046;13.692;2023-04-06T02:35:53;12.85;;;5.90;;
70818;SDS011;58439;51.046;13.692;2023-04-06T02:38:21;10.40;;;5.68;;
70818;SDS011;58439;51.046;13.692;2023-04-06T02:40:52;10.50;;;5.22;;
70818;SDS011;58439;51.046;13.692;2023-04-06T02:43:24;11.13;;;5.22;;
70818;SDS011;58439;51.046;13.692;2023-04-06T02:46:00;11.55;;;5.63;;
70818;SDS011;58439;51.046;13.692;2023-04-06T02:48:33;11.45;;;5.55;;
70818;SDS011;58439;51.046;13.692;2023-04-06T02:51:03;12.63;;;6.07;;
70818;SDS011;58439;51.046;13.692;2023-04-06T02:53:31;12.35;;;5.47;;
70818;SDS011;58439;51.046;13.692;2023-04-06T02:55:59;14.63;;;6.60;;
70818;SDS011;58439;51.046;13.692;2023-04-06T02:58:39;12.90;;;5.90;;
70818;SDS011;58439;51.046;13.692;2023-04-06T03:01:10;12.50;;;5.82;;
70818;SDS011;58439;51.046;13.692;2023-04-06T03:03:39;10.90;;;5.70;;
70818;SDS011;58439;51.046;13.692;2023-04-06T03:06:12;13.05;;;5.82;;
70818;SDS011;58439;51.046;13.692;2023-04-06T03:08:40;12.32;;;5.97;;
70818;SDS011;58439;51.046;13.692;2023-04-06T03:11:07;14.90;;;6.20;;
70818;SDS011;58439;51.046;13.692;2023-04-06T03:13:48;21.38;;;6.18;;
70818;SDS011;58439;51.046;13.692;2023-04-06T03:16:15;12.20;;;6.50;;
70818;SDS011;58439;51.046;13.692;2023-04-06T03:18:45;12.48;;;6.18;;
70818;SDS011;58439;51.046;13.692;2023-04-06T03:21:13;11.43;;;6.10;;
70818;SDS011;58439;51.046;13.692;2023-04-06T03:23:48;13.52;;;6.45;;
70818;SDS011;58439;51.046;13.692;2023-04-06T03:26:18;14.77;;;6.82;;
70818;SDS011;58439;51.046;13.692;2023-04-06T03:28:45;13.32;;;6.40;;
70818;SDS011;58439;51.046;13.692;2023-04-06T03:31:13;17.38;;;6.70;;
70818;SDS011;58439;51.046;13.692;2023-04-06T03:33:50;9.93;;;6.30;;
70818;SDS011;58439;51.046;13.692;2023-04-06T03:36:23;16.83;;;6.70;;
70818;SDS011;58439;51.046;13.692;2023-04-06T03:38:53;15.82;;;6.60;;
70818;SDS011;58439;51.046;13.692;2023-04-06T03:41:21;17.05;;;6.90;;
70818;SDS011;58439;51.046;13.692;2023-04-06T03:44:00;18.45;;;6.68;;
70818;SDS011;58439;51.046;13.692;2023-04-06T03:46:27;13.55;;;6.88;;
70818;SDS011;58439;51.046;13.692;2023-04-06T03:48:57;13.90;;;6.30;;
70818;SDS011;58439;51.046;13.692;2023-04-06T03:51:27;11.82;;;5.95;;
70818;SDS011;58439;51.046;13.692;2023-04-06T03:53:54;14.82;;;6.95;;
70818;SDS011;58439;51.046;13.692;2023-04-06T03:56:21;14.95;;;6.80;;
70818;SDS011;58439;51.046;13.692;2023-04-06T03:58:48;13.30;;;6.95;;
70818;SDS011;58439;51.046;13.692;2023-04-06T04:01:21;19.85;;;6.78;;
70818;SDS011;58439;51.046;13.692;2023-04-06T04:03:49;12.05;;;6.45;;
70818;SDS011;58439;51.046;13.692;2023-04-06T04:06:18;13.02;;;5.82;;
70818;SDS011;58439;51.046;13.692;2023-04-06T04:08:45;13.50;;;6.75;;
70818;SDS011;58439;51.046;13.692;2023-04-06T04:11:14;17.70;;;6.63;;
70818;SDS011;58439;51.046;13.692;2023-04-06T04:13:44;11.45;;;6.00;;
70818;SDS011;58439;51.046;13.692;2023-04-06T04:16:28;14.82;;;7.57;;
70818;SDS011;58439;51.046;13.692;2023-04-06T04:18:56;13.82;;;6.53;;
70818;SDS011;58439;51.046;13.692;2023-04-06T04:21:25;17.00;;;6.57;;
70818;SDS011;58439;51.046;13.692;2023-04-06T04:23:52;16.52;;;6.68;;
70818;SDS011;58439;51.046;13.692;2023-04-06T04:26:20;13.23;;;6.53;;
70818;SDS011;58439;51.046;13.692;2023-04-06T04:28:47;13.15;;;6.78;;
70818;SDS011;58439;51.046;13.692;2023-04-06T04:31:16;14.52;;;7.20;;
70818;SDS011;58439;51.046;13.692;2023-04-06T04:33:53;16.00;;;6.68;;
70818;SDS011;58439;51.046;13.692;2023-04-06T04:36:27;14.25;;;6.80;;
70818;SDS011;58439;51.046;13.692;2023-04-06T04:38:56;11.50;;;6.28;;
70818;SDS011;58439;51.046;13.692;2023-04-06T04:43:59;16.33;;;6.10;;
70818;SDS011;58439;51.046;13.692;2023-04-06T04:46:35;20.17;;;6.72;;
70818;SDS011;58439;51.046;13.692;2023-04-06T04:49:04;14.77;;;6.65;;
70818;SDS011;58439;51.046;13.692;2023-04-06T04:51:36;16.25;;;6.47;;
70818;SDS011;58439;51.046;13.692;2023-04-06T04:54:27;17.23;;;7.10;;
70818;SDS011;58439;51.046;13.692;2023-04-06T04:56:54;20.70;;;7.97;;
70818;SDS011;58439;51.046;13.692;2023-04-06T04:59:37;16.10;;;8.30;;
70818;SDS011;58439;51.046;13.692;2023-04-06T05:02:15;20.52;;;8.23;;
70818;SDS011;58439;51.046;13.692;2023-04-06T05:05:06;17.92;;;8.82;;
70818;SDS011;58439;51.046;13.692;2023-04-06T06:28:56;12.50;;;6.15;;
70818;SDS011;58439;51.046;13.692;2023-04-06T06:31:23;14.80;;;6.38;;
70818;SDS011;58439;51.046;13.692;2023-04-06T06:33:51;19.40;;;7.32;;
70818;SDS011;58439;51.046;13.692;2023-04-06T06:36:19;18.00;;;7.95;;
70818;SDS011;58439;51.046;13.692;2023-04-06T06:38:47;14.55;;;6.18;;
70818;SDS011;58439;51.046;13.692;2023-04-06T06:41:17;14.10;;;6.32;;
70818;SDS011;58439;51.046;13.692;2023-04-06T06:43:44;19.73;;;6.25;;
70818;SDS011;58439;51.046;13.692;2023-04-06T06:46:12;16.20;;;6.43;;
70818;SDS011;58439;51.046;13.692;2023-04-06T06:48:40;10.82;;;5.88;;
70818;SDS011;58439;51.046;13.692;2023-04-06T06:51:07;13.95;;;6.55;;
70818;SDS011;58439;51.046;13.692;2023-04-06T06:53:35;13.70;;;6.22;;
70818;SDS011;58439;51.046;13.692;2023-04-06T06:56:03;15.70;;;5.93;;
70818;SDS011;58439;51.046;13.692;2023-04-06T06:58:31;12.40;;;5.60;;
70818;SDS011;58439;51.046;13.692;2023-04-06T07:00:59;17.33;;;6.60;;
70818;SDS011;58439;51.046;13.692;2023-04-06T07:03:29;16.48;;;6.88;;
70818;SDS011;58439;51.046;13.692;2023-04-06T07:05:56;16.10;;;5.90;;
70818;SDS011;58439;51.046;13.692;2023-04-06T07:08:25;23.38;;;6.80;;
70818;SDS011;58439;51.046;13.692;2023-04-06T07:10:52;13.27;;;6.13;;
70818;SDS011;58439;51.046;13.692;2023-04-06T07:13:22;17.70;;;6.57;;
70818;SDS011;58439;51.046;13.692;2023-04-06T07:15:54;17.13;;;5.75;;
70818;SDS011;58439;51.046;13.692;2023-04-06T07:18:21;14.18;;;5.88;;
70818;SDS011;58439;51.046;13.692;2023-04-06T07:20:49;10.98;;;5.75;;
70818;SDS011;58439;51.046;13.692;2023-04-06T07:23:17;11.52;;;6.57;;
70818;SDS011;58439;51.046;13.692;2023-04-06T07:25:44;11.27;;;5.15;;
70818;SDS011;58439;51.046;13.692;2023-04-06T07:28:12;12.93;;;5.47;;
70818;SDS011;58439;51.046;13.692;2023-04-06T07:30:40;13.80;;;5.78;;
70818;SDS011;58439;51.046;13.692;2023-04-06T07:33:10;17.17;;;6.38;;
70818;SDS011;58439;51.046;13.692;2023-04-06T07:35:38;15.63;;;6.68;;
70818;SDS011;58439;51.046;13.692;2023-04-06T07:38:07;14.70;;;6.10;;
70818;SDS011;58439;51.046;13.692;2023-04-06T07:40:35;11.68;;;6.22;;
70818;SDS011;58439;51.046;13.692;2023-04-06T07:43:02;12.90;;;6.30;;
70818;SDS011;58439;51.046;13.692;2023-04-06T07:45:30;14.10;;;6.22;;
70818;SDS011;58439;51.046;13.692;2023-04-06T07:47:59;15.57;;;6.65;;
70818;SDS011;58439;51.046;13.692;2023-04-06T07:50:27;17.23;;;6.45;;
70818;SDS011;58439;51.046;13.692;2023-04-06T07:52:55;17.55;;;6.57;;
70818;SDS011;58439;51.046;13.692;2023-04-06T07:55:22;14.10;;;5.93;;
70818;SDS011;58439;51.046;13.692;2023-04-06T07:57:50;13.38;;;6.88;;
70818;SDS011;58439;51.046;13.692;2023-04-06T08:00:18;11.57;;;6.03;;
70818;SDS011;58439;51.046;13.692;2023-04-06T08:02:46;15.77;;;6.35;;
70818;SDS011;58439;51.046;13.692;2023-04-06T08:05:13;15.20;;;6.65;;
70818;SDS011;58439;51.046;13.692;2023-04-06T08:07:42;14.98;;;6.70;;
70818;SDS011;58439;51.046;13.692;2023-04-06T08:10:12;14.80;;;5.95;;
70818;SDS011;58439;51.046;13.692;2023-04-06T08:12:39;24.75;;;8.20;;
70818;SDS011;58439;51.046;13.692;2023-04-06T08:15:06;13.82;;;5.68;;
70818;SDS011;58439;51.046;13.692;2023-04-06T08:17:33;13.50;;;5.80;;
70818;SDS011;58439;51.046;13.692;2023-04-06T08:20:01;15.02;;;6.15;;
70818;SDS011;58439;51.046;13.692;2023-04-06T08:22:30;12.18;;;6.05;;
70818;SDS011;58439;51.046;13.692;2023-04-06T08:24:57;12.90;;;6.25;;
70818;SDS011;58439;51.046;13.692;2023-04-06T08:27:24;14.88;;;5.95;;
70818;SDS011;58439;51.046;13.692;2023-04-06T08:29:51;14.70;;;5.57;;
70818;SDS011;58439;51.046;13.692;2023-04-06T08:32:19;14.98;;;6.03;;
70818;SDS011;58439;51.046;13.692;2023-04-06T08:34:46;12.65;;;5.90;;
70818;SDS011;58439;51.046;13.692;2023-04-06T08:37:13;11.73;;;5.78;;
70818;SDS011;58439;51.046;13.692;2023-04-06T08:39:40;11.60;;;5.93;;
70818;SDS011;58439;51.046;13.692;2023-04-06T08:42:28;11.45;;;5.72;;
70818;SDS011;58439;51.046;13.692;2023-04-06T08:45:00;21.85;;;8.38;;
70818;SDS011;58439;51.046;13.692;2023-04-06T08:47:27;14.13;;;6.60;;
70818;SDS011;58439;51.046;13.692;2023-04-06T08:49:55;12.23;;;5.72;;
70818;SDS011;58439;51.046;13.692;2023-04-06T08:52:25;10.98;;;5.30;;
70818;SDS011;58439;51.046;13.692;2023-04-06T08:54:54;14.10;;;5.35;;
70818;SDS011;58439;51.046;13.692;2023-04-06T08:57:21;12.75;;;5.00;;
70818;SDS011;58439;51.046;13.692;2023-04-06T08:59:50;15.60;;;5.53;;
70818;SDS011;58439;51.046;13.692;2023-04-06T09:02:18;11.23;;;5.43;;
70818;SDS011;58439;51.046;13.692;2023-04-06T09:04:47;26.67;;;12.73;;
70818;SDS011;58439;51.046;13.692;2023-04-06T09:07:18;8.87;;;4.93;;
70818;SDS011;58439;51.046;13.692;2023-04-06T09:09:45;11.73;;;5.25;;
70818;SDS011;58439;51.046;13.692;2023-04-06T09:12:24;10.90;;;5.35;;
70818;SDS011;58439;51.046;13.692;2023-04-06T09:14:54;14.80;;;5.10;;
70818;SDS011;58439;51.046;13.692;2023-04-06T09:17:23;12.15;;;5.10;;
70818;SDS011;58439;51.046;13.692;2023-04-06T09:19:52;17.08;;;5.93;;
70818;SDS011;58439;51.046;13.692;2023-04-06T09:22:20;12.82;;;5.85;;
70818;SDS011;58439;51.046;13.692;2023-04-06T09:24:49;10.10;;;5.07;;
70818;SDS011;58439;51.046;13.692;2023-04-06T09:27:32;12.40;;;5.03;;
70818;SDS011;58439;51.046;13.692;2023-04-06T09:30:05;13.23;;;4.60;;
70818;SDS011;58439;51.046;13.692;2023-04-06T09:32:44;10.45;;;4.93;;
70818;SDS011;58439;51.046;13.692;2023-04-06T09:35:18;10.15;;;4.63;;
70818;SDS011;58439;51.046;13.692;2023-04-06T09:37:47;8.73;;;4.45;;
70818;SDS011;58439;51.046;13.692;2023-04-06T09:40:17;13.85;;;4.60;;
70818;SDS011;58439;51.046;13.692;2023-04-06T09:42:46;8.98;;;4.32;;
70818;SDS011;58439;51.046;13.692;2023-04-06T09:45:14;7.22;;;4.00;;
70818;SDS011;58439;51.046;13.692;2023-04-06T09:47:43;12.50;;;4.10;;
70818;SDS011;58439;51.046;13.692;2023-04-06T09:50:12;9.32;;;4.70;;
70818;SDS011;58439;51.046;13.692;2023-04-06T09:52:50;8.15;;;4.28;;
70818;SDS011;58439;51.046;13.692;2023-04-06T09:55:26;7.63;;;4.40;;
70818;SDS011;58439;51.046;13.692;2023-04-06T09:58:05;11.20;;;4.20;;
70818;SDS011;58439;51.046;13.692;2023-04-06T10:00:43;9.30;;;3.85;;
70818;SDS011;58439;51.046;13.692;2023-04-06T10:03:37;6.80;;;3.35;;
70818;SDS011;58439;51.046;13.692;2023-04-06T10:06:46;10.38;;;4.72;;
70818;SDS011;58439;51.046;13.692;2023-04-06T10:09:20;15.40;;;5.90;;
70818;SDS011;58439;51.046;13.692;2023-04-06T10:14:33;17.63;;;8.50;;
70818;SDS011;58439;51.046;13.692;2023-04-06T10:17:03;16.10;;;5.00;;
70818;SDS011;58439;51.046;13.692;2023-04-06T10:22:45;8.57;;;4.00;;
70818;SDS011;58439;51.046;13.692;2023-04-06T10:25:30;31.77;;;13.60;;
70818;SDS011;58439;51.046;13.692;2023-04-06T10:30:44;11.77;;;5.70;;
70818;SDS011;58439;51.046;13.692;2023-04-06T10:33:20;11.05;;;4.95;;
70818;SDS011;58439;51.046;13.692;2023-04-06T10:35:48;13.48;;;5.63;;
70818;SDS011;58439;51.046;13.692;2023-04-06T10:38:15;15.85;;;6.03;;
70818;SDS011;58439;51.046;13.692;2023-04-06T10:40:47;7.20;;;4.15;;
70818;SDS011;58439;51.046;13.692;2023-04-06T10:43:21;14.82;;;5.75;;
70818;SDS011;58439;51.046;13.692;2023-04-06T10:45:55;12.02;;;5.50;;
70818;SDS011;58439;51.046;13.692;2023-04-06T10:48:36;7.32;;;3.78;;
70818;SDS011;58439;51.046;13.692;2023-04-06T10:51:07;15.25;;;5.47;;
70818;SDS011;58439;51.046;13.692;2023-04-06T10:53:43;11.00;;;4.35;;
70818;SDS011;58439;51.046;13.692;2023-04-06T10:56:13;8.55;;;4.00;;
70818;SDS011;58439;51.046;13.692;2023-04-06T10:58:50;9.27;;;4.22;;
70818;SDS011;58439;51.046;13.692;2023-04-06T11:01:20;8.68;;;4.20;;
70818;SDS011;58439;51.046;13.692;2023-04-06T11:03:53;11.30;;;4.93;;
70818;SDS011;58439;51.046;13.692;2023-04-06T11:11:24;14.20;;;5.10;;
70818;SDS011;58439;51.046;13.692;2023-04-06T11:13:57;7.70;;;3.60;;
70818;SDS011;58439;51.046;13.692;2023-04-06T11:21:41;9.55;;;4.05;;
70818;SDS011;58439;51.046;13.692;2023-04-06T11:24:22;8.63;;;3.88;;
70818;SDS011;58439;51.046;13.692;2023-04-06T11:26:51;26.30;;;13.50;;
70818;SDS011;58439;51.046;13.692;2023-04-06T11:29:28;10.60;;;4.60;;
70818;SDS011;58439;51.046;13.692;2023-04-06T11:31:58;12.20;;;3.75;;
70818;SDS011;58439;51.046;13.692;2023-04-06T11:34:29;9.25;;;4.13;;
70818;SDS011;58439;51.046;13.692;2023-04-06T11:37:00;13.77;;;5.20;;
70818;SDS011;58439;51.046;13.692;2023-04-06T11:39:36;11.35;;;5.45;;
70818;SDS011;58439;51.046;13.692;2023-04-06T11:42:06;4.72;;;3.05;;
70818;SDS011;58439;51.046;13.692;2023-04-06T11:44:35;6.75;;;3.80;;
70818;SDS011;58439;51.046;13.692;2023-04-06T11:47:08;6.97;;;4.00;;
70818;SDS011;58439;51.046;13.692;2023-04-06T11:49:38;6.90;;;3.70;;
70818;SDS011;58439;51.046;13.692;2023-04-06T11:52:18;9.82;;;3.80;;
70818;SDS011;58439;51.046;13.692;2023-04-06T11:54:51;9.77;;;3.92;;
70818;SDS011;58439;51.046;13.692;2023-04-06T11:57:21;5.70;;;3.22;;
70818;SDS011;58439;51.046;13.692;2023-04-06T11:59:52;6.15;;;3.25;;
70818;SDS011;58439;51.046;13.692;2023-04-06T12:02:19;6.35;;;3.50;;
70818;SDS011;58439;51.046;13.692;2023-04-06T12:04:47;6.18;;;3.33;;
70818;SDS011;58439;51.046;13.692;2023-04-06T12:07:14;6.72;;;3.50;;
70818;SDS011;58439;51.046;13.692;2023-04-06T12:09:42;11.07;;;4.22;;
70818;SDS011;58439;51.046;13.692;2023-04-06T12:12:09;13.73;;;3.35;;
70818;SDS011;58439;51.046;13.692;2023-04-06T12:14:36;10.80;;;4.93;;
70818;SDS011;58439;51.046;13.692;2023-04-06T12:17:03;5.90;;;3.40;;
70818;SDS011;58439;51.046;13.692;2023-04-06T12:19:31;11.02;;;4.57;;
70818;SDS011;58439;51.046;13.692;2023-04-06T12:21:58;8.75;;;4.03;;
70818;SDS011;58439;51.046;13.692;2023-04-06T12:24:25;8.88;;;4.13;;
70818;SDS011;58439;51.046;13.692;2023-04-06T12:26:55;8.18;;;3.88;;
70818;SDS011;58439;51.046;13.692;2023-04-06T12:29:35;10.68;;;4.75;;
70818;SDS011;58439;51.046;13.692;2023-04-06T12:32:03;8.25;;;3.70;;
70818;SDS011;58439;51.046;13.692;2023-04-06T12:34:31;11.55;;;4.18;;
70818;SDS011;58439;51.046;13.692;2023-04-06T12:36:58;7.38;;;3.53;;
70818;SDS011;58439;51.046;13.692;2023-04-06T12:39:27;15.73;;;8.05;;
70818;SDS011;58439;51.046;13.692;2023-04-06T12:41:54;10.13;;;4.22;;
70818;SDS011;58439;51.046;13.692;2023-04-06T12:44:22;6.97;;;3.83;;
70818;SDS011;58439;51.046;13.692;2023-04-06T12:46:52;9.68;;;4.10;;
70818;SDS011;58439;51.046;13.692;2023-04-06T12:49:19;7.28;;;3.97;;
70818;SDS011;58439;51.046;13.692;2023-04-06T12:51:46;8.25;;;3.60;;
70818;SDS011;58439;51.046;13.692;2023-04-06T12:54:14;6.95;;;3.33;;
70818;SDS011;58439;51.046;13.692;2023-04-06T12:56:42;6.75;;;4.00;;
70818;SDS011;58439;51.046;13.692;2023-04-06T12:59:09;10.25;;;4.28;;
70818;SDS011;58439;51.046;13.692;2023-04-06T13:01:36;13.10;;;4.82;;
70818;SDS011;58439;51.046;13.692;2023-04-06T13:04:04;6.47;;;3.80;;
70818;SDS011;58439;51.046;13.692;2023-04-06T13:06:31;6.95;;;4.00;;
70818;SDS011;58439;51.046;13.692;2023-04-06T13:08:58;9.90;;;4.55;;
70818;SDS011;58439;51.046;13.692;2023-04-06T13:11:25;9.38;;;3.90;;
70818;SDS011;58439;51.046;13.692;2023-04-06T13:13:54;10.82;;;4.20;;
70818;SDS011;58439;51.046;13.692;2023-04-06T13:16:21;11.13;;;4.25;;
70818;SDS011;58439;51.046;13.692;2023-04-06T13:18:49;10.77;;;6.95;;
70818;SDS011;58439;51.046;13.692;2023-04-06T13:21:16;5.82;;;3.80;;
70818;SDS011;58439;51.046;13.692;2023-04-06T13:23:47;6.43;;;3.60;;
70818;SDS011;58439;51.046;13.692;2023-04-06T13:26:14;6.20;;;3.45;;
70818;SDS011;58439;51.046;13.692;2023-04-06T13:28:43;3.92;;;2.97;;
70818;SDS011;58439;51.046;13.692;2023-04-06T13:31:10;6.47;;;3.17;;
70818;SDS011;58439;51.046;13.692;2023-04-06T13:33:40;7.43;;;3.50;;
70818;SDS011;58439;51.046;13.692;2023-04-06T13:36:07;5.85;;;3.63;;
70818;SDS011;58439;51.046;13.692;2023-04-06T13:38:35;6.07;;;3.47;;
70818;SDS011;58439;51.046;13.692;2023-04-06T13:41:05;12.73;;;4.13;;
70818;SDS011;58439;51.046;13.692;2023-04-06T13:43:32;5.93;;;3.70;;
70818;SDS011;58439;51.046;13.692;2023-04-06T13:46:00;8.35;;;3.75;;
70818;SDS011;58439;51.046;13.692;2023-04-06T13:48:28;6.13;;;3.97;;
70818;SDS011;58439;51.046;13.692;2023-04-06T13:50:55;7.22;;;3.90;;
70818;SDS011;58439;51.046;13.692;2023-04-06T13:53:22;10.18;;;4.30;;
70818;SDS011;58439;51.046;13.692;2023-04-06T13:55:53;6.13;;;3.60;;
70818;SDS011;58439;51.046;13.692;2023-04-06T13:58:22;5.65;;;3.60;;
70818;SDS011;58439;51.046;13.692;2023-04-06T14:00:49;5.38;;;3.72;;
70818;SDS011;58439;51.046;13.692;2023-04-06T14:03:18;8.13;;;3.60;;
70818;SDS011;58439;51.046;13.692;2023-04-06T14:05:46;4.88;;;3.60;;
70818;SDS011;58439;51.046;13.692;2023-04-06T14:08:13;7.18;;;3.72;;
70818;SDS011;58439;51.046;13.692;2023-04-06T14:10:41;5.32;;;3.55;;
70818;SDS011;58439;51.046;13.692;2023-04-06T14:13:11;8.43;;;4.32;;
70818;SDS011;58439;51.046;13.692;2023-04-06T14:15:38;6.03;;;3.90;;
70818;SDS011;58439;51.046;13.692;2023-04-06T14:18:05;6.78;;;3.65;;
70818;SDS011;58439;51.046;13.692;2023-04-06T14:20:34;7.93;;;3.72;;
70818;SDS011;58439;51.046;13.692;2023-04-06T14:23:02;9.05;;;3.45;;
70818;SDS011;58439;51.046;13.692;2023-04-06T14:25:30;6.45;;;3.70;;
70818;SDS011;58439;51.046;13.692;2023-04-06T14:28:01;7.13;;;3.83;;
70818;SDS011;58439;51.046;13.692;2023-04-06T14:30:29;7.28;;;4.15;;
70818;SDS011;58439;51.046;13.692;2023-04-06T14:32:57;8.50;;;3.70;;
70818;SDS011;58439;51.046;13.692;2023-04-06T14:35:25;8.68;;;3.72;;
70818;SDS011;58439;51.046;13.692;2023-04-06T14:37:55;6.85;;;4.13;;
70818;SDS011;58439;51.046;13.692;2023-04-06T14:40:27;6.45;;;3.85;;
70818;SDS011;58439;51.046;13.692;2023-04-06T14:42:56;7.00;;;3.50;;
70818;SDS011;58439;51.046;13.692;2023-04-06T14:45:23;7.03;;;3.60;;
70818;SDS011;58439;51.046;13.692;2023-04-06T14:47:50;7.50;;;3.72;;
70818;SDS011;58439;51.046;13.692;2023-04-06T14:50:18;6.68;;;3.83;;
70818;SDS011;58439;51.046;13.692;2023-04-06T14:52:45;8.73;;;3.40;;
70818;SDS011;58439;51.046;13.692;2023-04-06T14:55:13;6.18;;;3.70;;
70818;SDS011;58439;51.046;13.692;2023-04-06T14:57:40;9.95;;;3.45;;
70818;SDS011;58439;51.046;13.692;2023-04-06T15:00:09;5.40;;;3.20;;
70818;SDS011;58439;51.046;13.692;2023-04-06T15:02:37;6.95;;;3.33;;
70818;SDS011;58439;51.046;13.692;2023-04-06T15:05:05;5.70;;;3.30;;
70818;SDS011;58439;51.046;13.692;2023-04-06T15:07:32;6.20;;;3.20;;
70818;SDS011;58439;51.046;13.692;2023-04-06T15:09:59;5.85;;;3.15;;
70818;SDS011;58439;51.046;13.692;2023-04-06T15:12:27;8.50;;;4.03;;
70818;SDS011;58439;51.046;13.692;2023-04-06T15:14:55;5.43;;;3.40;;
70818;SDS011;58439;51.046;13.692;2023-04-06T15:17:23;5.43;;;3.47;;
70818;SDS011;58439;51.046;13.692;2023-04-06T15:19:51;8.70;;;3.70;;
70818;SDS011;58439;51.046;13.692;2023-04-06T15:22:19;6.22;;;3.85;;
70818;SDS011;58439;51.046;13.692;2023-04-06T15:24:46;5.85;;;3.70;;
70818;SDS011;58439;51.046;13.692;2023-04-06T15:27:14;6.43;;;3.35;;
70818;SDS011;58439;51.046;13.692;2023-04-06T15:29:41;6.57;;;3.58;;
70818;SDS011;58439;51.046;13.692;2023-04-06T15:32:09;6.75;;;4.10;;
70818;SDS011;58439;51.046;13.692;2023-04-06T15:34:36;6.20;;;3.25;;
70818;SDS011;58439;51.046;13.692;2023-04-06T15:37:03;8.02;;;3.80;;
70818;SDS011;58439;51.046;13.692;2023-04-06T15:39:32;5.75;;;3.92;;
70818;SDS011;58439;51.046;13.692;2023-04-06T15:41:59;5.15;;;3.30;;
70818;SDS011;58439;51.046;13.692;2023-04-06T15:44:32;7.18;;;3.40;;
70818;SDS011;58439;51.046;13.692;2023-04-06T15:46:59;5.35;;;3.38;;
70818;SDS011;58439;51.046;13.692;2023-04-06T15:49:27;6.32;;;3.50;;
70818;SDS011;58439;51.046;13.692;2023-04-06T15:51:54;5.43;;;3.50;;
70818;SDS011;58439;51.046;13.692;2023-04-06T15:54:21;7.47;;;3.80;;
70818;SDS011;58439;51.046;13.692;2023-04-06T15:56:49;6.95;;;3.13;;
70818;SDS011;58439;51.046;13.692;2023-04-06T15:59:16;6.45;;;3.30;;
70818;SDS011;58439;51.046;13.692;2023-04-06T16:01:44;5.47;;;3.05;;
70818;SDS011;58439;51.046;13.692;2023-04-06T16:04:13;4.28;;;2.90;;
70818;SDS011;58439;51.046;13.692;2023-04-06T16:06:40;5.35;;;3.30;;
70818;SDS011;58439;51.046;13.692;2023-04-06T16:09:08;4.20;;;2.60;;
70818;SDS011;58439;51.046;13.692;2023-04-06T16:11:36;6.82;;;3.20;;
70818;SDS011;58439;51.046;13.692;2023-04-06T16:14:03;8.05;;;3.53;;
70818;SDS011;58439;51.046;13.692;2023-04-06T16:16:30;7.53;;;3.63;;
70818;SDS011;58439;51.046;13.692;2023-04-06T16:18:57;7.63;;;3.60;;
70818;SDS011;58439;51.046;13.692;2023-04-06T16:21:26;5.50;;;3.22;;
70818;SDS011;58439;51.046;13.692;2023-04-06T16:23:54;7.30;;;3.95;;
70818;SDS011;58439;51.046;13.692;2023-04-06T16:26:26;6.50;;;4.03;;
70818;SDS011;58439;51.046;13.692;2023-04-06T16:28:54;7.65;;;3.60;;
70818;SDS011;58439;51.046;13.692;2023-04-06T16:31:22;7.68;;;3.47;;
70818;SDS011;58439;51.046;13.692;2023-04-06T16:33:51;8.63;;;3.35;;
70818;SDS011;58439;51.046;13.692;2023-04-06T16:36:24;6.78;;;3.90;;
70818;SDS011;58439;51.046;13.692;2023-04-06T16:38:54;6.00;;;3.38;;
70818;SDS011;58439;51.046;13.692;2023-04-06T16:41:23;7.20;;;3.47;;